sensor_id;sensor_type;location;lat;lon;timestamp;P1;durP1;ratioP1;P2;durP2;ratioP2
38715;SDS011;24833;49.324;8.694;2023-05-10T00:00:55;0.90;;;0.55;;
38715;SDS011;24833;49.324;8.694;2023-05-10T00:03:22;0.63;;;0.50;;
38715;SDS011;24833;49.324;8.694;2023-05-10T00:05:49;1.45;;;0.50;;
38715;SDS011;24833;49.324;8.694;2023-05-10T00:08:16;0.77;;;0.52;;
38715;SDS011;24833;49.324;8.694;2023-05-10T00:10:43;0.32;;;0.32;;
38715;SDS011;24833;49.324;8.694;2023-05-10T00:13:10;0.80;;;0.63;;
38715;SDS011;24833;49.324;8.694;2023-05-10T00:15:37;0.60;;;0.60;;
38715;SDS011;24833;49.324;8.694;2023-05-10T00:18:04;0.77;;;0.77;;
38715;SDS011;24833;49.324;8.694;2023-05-10T00:20:31;0.60;;;0.60;;
38715;SDS011;24833;49.324;8.694;2023-05-10T00:22:58;0.68;;;0.68;;
38715;SDS011;24833;49.324;8.694;2023-05-10T00:25:25;1.00;;;0.70;;
38715;SDS011;24833;49.324;8.694;2023-05-10T00:27:52;0.85;;;0.70;;
38715;SDS011;24833;49.324;8.694;2023-05-10T00:30:21;1.55;;;1.45;;
38715;SDS011;24833;49.324;8.694;2023-05-10T00:32:48;0.60;;;0.55;;
38715;SDS011;24833;49.324;8.694;2023-05-10T00:35:16;0.50;;;0.50;;
38715;SDS011;24833;49.324;8.694;2023-05-10T00:37:43;0.65;;;0.47;;
38715;SDS011;24833;49.324;8.694;2023-05-10T00:40:10;0.50;;;0.50;;
38715;SDS011;24833;49.324;8.694;2023-05-10T00:42:39;1.15;;;0.50;;
38715;SDS011;24833;49.324;8.694;2023-05-10T00:45:06;0.50;;;0.50;;
38715;SDS011;24833;49.324;8.694;2023-05-10T00:47:34;0.50;;;0.50;;
38715;SDS011;24833;49.324;8.694;2023-05-10T00:50:02;0.50;;;0.50;;
38715;SDS011;24833;49.324;8.694;2023-05-10T00:52:30;0.73;;;0.40;;
38715;SDS011;24833;49.324;8.694;2023-05-10T00:54:58;0.47;;;0.47;;
38715;SDS011;24833;49.324;8.694;2023-05-10T00:57:26;1.02;;;0.40;;
38715;SDS011;24833;49.324;8.694;2023-05-10T00:59:53;0.90;;;0.60;;
38715;SDS011;24833;49.324;8.694;2023-05-10T01:02:20;0.77;;;0.60;;
38715;SDS011;24833;49.324;8.694;2023-05-10T01:04:47;2.15;;;0.60;;
38715;SDS011;24833;49.324;8.694;2023-05-10T01:07:15;0.50;;;0.50;;
38715;SDS011;24833;49.324;8.694;2023-05-10T01:09:43;0.80;;;0.50;;
38715;SDS011;24833;49.324;8.694;2023-05-10T01:12:10;0.70;;;0.52;;
38715;SDS011;24833;49.324;8.694;2023-05-10T01:14:38;0.40;;;0.40;;
38715;SDS011;24833;49.324;8.694;2023-05-10T01:17:05;0.60;;;0.60;;
38715;SDS011;24833;49.324;8.694;2023-05-10T01:19:34;0.50;;;0.50;;
38715;SDS011;24833;49.324;8.694;2023-05-10T01:22:05;0.50;;;0.43;;
38715;SDS011;24833;49.324;8.694;2023-05-10T01:33:35;0.35;;;0.30;;
38715;SDS011;24833;49.324;8.694;2023-05-10T01:39:20;0.40;;;0.40;;
38715;SDS011;24833;49.324;8.694;2023-05-10T01:44:37;0.20;;;0.20;;
38715;SDS011;24833;49.324;8.694;2023-05-10T01:49:57;0.50;;;0.30;;
38715;SDS011;24833;49.324;8.694;2023-05-10T01:52:32;0.30;;;0.30;;
38715;SDS011;24833;49.324;8.694;2023-05-10T01:55:05;0.38;;;0.38;;
38715;SDS011;24833;49.324;8.694;2023-05-10T02:00:06;0.77;;;0.30;;
38715;SDS011;24833;49.324;8.694;2023-05-10T02:02:42;0.40;;;0.40;;
38715;SDS011;24833;49.324;8.694;2023-05-10T02:05:12;0.40;;;0.40;;
38715;SDS011;24833;49.324;8.694;2023-05-10T02:07:42;0.68;;;0.68;;
38715;SDS011;24833;49.324;8.694;2023-05-10T02:10:10;0.70;;;0.30;;
38715;SDS011;24833;49.324;8.694;2023-05-10T02:12:43;0.45;;;0.35;;
38715;SDS011;24833;49.324;8.694;2023-05-10T02:15:15;0.50;;;0.50;;
38715;SDS011;24833;49.324;8.694;2023-05-10T02:17:48;0.43;;;0.43;;
38715;SDS011;24833;49.324;8.694;2023-05-10T02:20:16;2.25;;;0.40;;
38715;SDS011;24833;49.324;8.694;2023-05-10T02:22:46;1.08;;;0.43;;
38715;SDS011;24833;49.324;8.694;2023-05-10T02:25:15;0.32;;;0.32;;
38715;SDS011;24833;49.324;8.694;2023-05-10T02:30:14;0.60;;;0.50;;
38715;SDS011;24833;49.324;8.694;2023-05-10T02:32:43;0.63;;;0.45;;
38715;SDS011;24833;49.324;8.694;2023-05-10T02:35:11;0.45;;;0.40;;
38715;SDS011;24833;49.324;8.694;2023-05-10T02:37:39;0.30;;;0.30;;
38715;SDS011;24833;49.324;8.694;2023-05-10T02:40:07;1.17;;;0.60;;
38715;SDS011;24833;49.324;8.694;2023-05-10T02:42:37;0.57;;;0.50;;
38715;SDS011;24833;49.324;8.694;2023-05-10T02:45:10;3.35;;;0.50;;
38715;SDS011;24833;49.324;8.694;2023-05-10T02:47:41;0.50;;;0.50;;
38715;SDS011;24833;49.324;8.694;2023-05-10T02:50:09;0.47;;;0.47;;
38715;SDS011;24833;49.324;8.694;2023-05-10T02:52:42;0.70;;;0.60;;
38715;SDS011;24833;49.324;8.694;2023-05-10T02:55:14;0.52;;;0.52;;
38715;SDS011;24833;49.324;8.694;2023-05-10T02:57:47;1.05;;;0.68;;
38715;SDS011;24833;49.324;8.694;2023-05-10T03:00:20;2.53;;;0.57;;
38715;SDS011;24833;49.324;8.694;2023-05-10T03:02:47;0.60;;;0.60;;
38715;SDS011;24833;49.324;8.694;2023-05-10T03:05:15;0.60;;;0.60;;
38715;SDS011;24833;49.324;8.694;2023-05-10T03:07:42;1.50;;;0.65;;
38715;SDS011;24833;49.324;8.694;2023-05-10T03:10:10;0.70;;;0.65;;
38715;SDS011;24833;49.324;8.694;2023-05-10T03:18:06;1.02;;;0.90;;
38715;SDS011;24833;49.324;8.694;2023-05-10T03:20:41;0.70;;;0.65;;
38715;SDS011;24833;49.324;8.694;2023-05-10T03:23:15;0.73;;;0.70;;
38715;SDS011;24833;49.324;8.694;2023-05-10T03:26:09;1.23;;;1.13;;
38715;SDS011;24833;49.324;8.694;2023-05-10T03:28:41;0.80;;;0.80;;
38715;SDS011;24833;49.324;8.694;2023-05-10T03:31:08;1.77;;;0.95;;
38715;SDS011;24833;49.324;8.694;2023-05-10T03:33:45;0.80;;;0.80;;
38715;SDS011;24833;49.324;8.694;2023-05-10T03:36:21;0.75;;;0.75;;
38715;SDS011;24833;49.324;8.694;2023-05-10T03:38:49;2.53;;;0.98;;
38715;SDS011;24833;49.324;8.694;2023-05-10T03:41:16;1.20;;;1.00;;
38715;SDS011;24833;49.324;8.694;2023-05-10T03:43:43;1.63;;;0.98;;
38715;SDS011;24833;49.324;8.694;2023-05-10T03:46:10;2.00;;;1.08;;
38715;SDS011;24833;49.324;8.694;2023-05-10T03:48:38;1.08;;;1.08;;
38715;SDS011;24833;49.324;8.694;2023-05-10T03:51:05;1.13;;;1.02;;
38715;SDS011;24833;49.324;8.694;2023-05-10T03:53:32;1.92;;;1.00;;
38715;SDS011;24833;49.324;8.694;2023-05-10T03:55:59;1.33;;;1.10;;
38715;SDS011;24833;49.324;8.694;2023-05-10T03:58:26;1.25;;;1.08;;
38715;SDS011;24833;49.324;8.694;2023-05-10T04:00:53;1.30;;;1.20;;
38715;SDS011;24833;49.324;8.694;2023-05-10T04:03:20;2.92;;;1.35;;
38715;SDS011;24833;49.324;8.694;2023-05-10T04:05:47;1.15;;;1.05;;
38715;SDS011;24833;49.324;8.694;2023-05-10T04:08:14;1.65;;;1.10;;
38715;SDS011;24833;49.324;8.694;2023-05-10T04:10:42;2.25;;;1.23;;
38715;SDS011;24833;49.324;8.694;2023-05-10T04:13:09;0.82;;;0.77;;
38715;SDS011;24833;49.324;8.694;2023-05-10T04:15:37;0.85;;;0.85;;
38715;SDS011;24833;49.324;8.694;2023-05-10T04:18:04;1.13;;;0.98;;
38715;SDS011;24833;49.324;8.694;2023-05-10T04:20:34;0.80;;;0.80;;
38715;SDS011;24833;49.324;8.694;2023-05-10T04:23:01;1.60;;;1.02;;
38715;SDS011;24833;49.324;8.694;2023-05-10T04:25:28;1.00;;;0.95;;
38715;SDS011;24833;49.324;8.694;2023-05-10T04:27:55;1.10;;;1.08;;
38715;SDS011;24833;49.324;8.694;2023-05-10T04:30:22;1.15;;;1.10;;
38715;SDS011;24833;49.324;8.694;2023-05-10T04:32:49;1.50;;;1.00;;
38715;SDS011;24833;49.324;8.694;2023-05-10T04:35:16;1.35;;;1.30;;
38715;SDS011;24833;49.324;8.694;2023-05-10T04:37:43;1.73;;;1.38;;
38715;SDS011;24833;49.324;8.694;2023-05-10T04:40:10;2.97;;;1.48;;
38715;SDS011;24833;49.324;8.694;2023-05-10T04:42:39;1.75;;;1.42;;
38715;SDS011;24833;49.324;8.694;2023-05-10T04:45:07;1.67;;;1.57;;
38715;SDS011;24833;49.324;8.694;2023-05-10T04:47:35;3.50;;;1.85;;
38715;SDS011;24833;49.324;8.694;2023-05-10T04:50:03;1.50;;;1.40;;
38715;SDS011;24833;49.324;8.694;2023-05-10T04:52:31;1.48;;;1.38;;
38715;SDS011;24833;49.324;8.694;2023-05-10T04:54:58;1.27;;;1.20;;
38715;SDS011;24833;49.324;8.694;2023-05-10T04:57:25;1.67;;;1.58;;
38715;SDS011;24833;49.324;8.694;2023-05-10T04:59:52;1.58;;;1.48;;
38715;SDS011;24833;49.324;8.694;2023-05-10T05:02:19;1.30;;;1.20;;
38715;SDS011;24833;49.324;8.694;2023-05-10T05:04:46;2.00;;;1.55;;
38715;SDS011;24833;49.324;8.694;2023-05-10T05:07:13;1.67;;;1.58;;
38715;SDS011;24833;49.324;8.694;2023-05-10T05:09:41;1.70;;;1.60;;
38715;SDS011;24833;49.324;8.694;2023-05-10T05:12:07;1.95;;;1.83;;
38715;SDS011;24833;49.324;8.694;2023-05-10T05:14:40;1.88;;;1.75;;
38715;SDS011;24833;49.324;8.694;2023-05-10T05:17:07;1.45;;;1.35;;
38715;SDS011;24833;49.324;8.694;2023-05-10T05:19:34;2.90;;;1.67;;
38715;SDS011;24833;49.324;8.694;2023-05-10T05:22:01;2.45;;;1.90;;
38715;SDS011;24833;49.324;8.694;2023-05-10T05:24:28;1.60;;;1.50;;
38715;SDS011;24833;49.324;8.694;2023-05-10T05:27:00;1.73;;;1.63;;
38715;SDS011;24833;49.324;8.694;2023-05-10T05:29:27;2.00;;;1.80;;
38715;SDS011;24833;49.324;8.694;2023-05-10T05:31:55;1.75;;;1.65;;
38715;SDS011;24833;49.324;8.694;2023-05-10T05:34:22;2.15;;;1.95;;
38715;SDS011;24833;49.324;8.694;2023-05-10T05:36:49;1.80;;;1.70;;
38715;SDS011;24833;49.324;8.694;2023-05-10T05:39:16;2.38;;;1.80;;
38715;SDS011;24833;49.324;8.694;2023-05-10T05:41:43;2.15;;;1.95;;
38715;SDS011;24833;49.324;8.694;2023-05-10T05:44:10;2.00;;;1.90;;
38715;SDS011;24833;49.324;8.694;2023-05-10T05:46:37;1.95;;;1.73;;
38715;SDS011;24833;49.324;8.694;2023-05-10T05:49:04;1.77;;;1.67;;
38715;SDS011;24833;49.324;8.694;2023-05-10T05:51:31;2.25;;;1.83;;
38715;SDS011;24833;49.324;8.694;2023-05-10T05:53:58;2.38;;;1.88;;
38715;SDS011;24833;49.324;8.694;2023-05-10T05:56:25;2.13;;;1.65;;
38715;SDS011;24833;49.324;8.694;2023-05-10T05:58:52;2.75;;;2.17;;
38715;SDS011;24833;49.324;8.694;2023-05-10T06:01:19;2.00;;;1.90;;
38715;SDS011;24833;49.324;8.694;2023-05-10T06:03:47;2.17;;;1.98;;
38715;SDS011;24833;49.324;8.694;2023-05-10T06:06:17;2.33;;;2.13;;
38715;SDS011;24833;49.324;8.694;2023-05-10T06:08:44;2.92;;;2.30;;
38715;SDS011;24833;49.324;8.694;2023-05-10T06:11:11;2.92;;;2.47;;
38715;SDS011;24833;49.324;8.694;2023-05-10T06:13:38;2.42;;;2.22;;
38715;SDS011;24833;49.324;8.694;2023-05-10T06:16:07;2.88;;;2.58;;
38715;SDS011;24833;49.324;8.694;2023-05-10T06:18:34;3.55;;;2.60;;
38715;SDS011;24833;49.324;8.694;2023-05-10T06:21:01;3.20;;;2.90;;
38715;SDS011;24833;49.324;8.694;2023-05-10T06:23:28;5.40;;;2.50;;
38715;SDS011;24833;49.324;8.694;2023-05-10T06:25:55;2.47;;;2.28;;
38715;SDS011;24833;49.324;8.694;2023-05-10T06:28:22;2.38;;;2.17;;
38715;SDS011;24833;49.324;8.694;2023-05-10T06:30:49;2.85;;;2.22;;
38715;SDS011;24833;49.324;8.694;2023-05-10T06:33:16;1.88;;;1.67;;
38715;SDS011;24833;49.324;8.694;2023-05-10T06:35:42;2.45;;;2.08;;
38715;SDS011;24833;49.324;8.694;2023-05-10T06:38:09;2.22;;;2.03;;
38715;SDS011;24833;49.324;8.694;2023-05-10T06:40:36;2.38;;;1.95;;
38715;SDS011;24833;49.324;8.694;2023-05-10T06:43:07;2.22;;;1.92;;
38715;SDS011;24833;49.324;8.694;2023-05-10T06:45:35;2.20;;;2.00;;
38715;SDS011;24833;49.324;8.694;2023-05-10T06:48:02;1.70;;;1.60;;
38715;SDS011;24833;49.324;8.694;2023-05-10T06:50:29;1.67;;;1.58;;
38715;SDS011;24833;49.324;8.694;2023-05-10T06:52:56;2.10;;;1.52;;
38715;SDS011;24833;49.324;8.694;2023-05-10T06:55:23;1.80;;;1.67;;
38715;SDS011;24833;49.324;8.694;2023-05-10T06:57:50;1.90;;;1.50;;
38715;SDS011;24833;49.324;8.694;2023-05-10T07:00:17;2.60;;;1.52;;
38715;SDS011;24833;49.324;8.694;2023-05-10T07:02:46;1.40;;;1.30;;
38715;SDS011;24833;49.324;8.694;2023-05-10T07:05:14;1.83;;;1.65;;
38715;SDS011;24833;49.324;8.694;2023-05-10T07:07:41;1.60;;;1.50;;
38715;SDS011;24833;49.324;8.694;2023-05-10T07:10:09;2.13;;;1.88;;
38715;SDS011;24833;49.324;8.694;2023-05-10T07:12:42;1.77;;;1.65;;
38715;SDS011;24833;49.324;8.694;2023-05-10T07:15:09;4.07;;;1.80;;
38715;SDS011;24833;49.324;8.694;2023-05-10T07:17:36;2.92;;;1.83;;
38715;SDS011;24833;49.324;8.694;2023-05-10T07:20:04;1.77;;;1.55;;
38715;SDS011;24833;49.324;8.694;2023-05-10T07:22:32;1.55;;;1.45;;
38715;SDS011;24833;49.324;8.694;2023-05-10T07:24:59;3.15;;;1.60;;
38715;SDS011;24833;49.324;8.694;2023-05-10T07:27:26;4.20;;;1.73;;
38715;SDS011;24833;49.324;8.694;2023-05-10T07:29:52;1.85;;;1.75;;
38715;SDS011;24833;49.324;8.694;2023-05-10T07:32:20;1.98;;;1.60;;
38715;SDS011;24833;49.324;8.694;2023-05-10T07:34:48;3.40;;;1.95;;
38715;SDS011;24833;49.324;8.694;2023-05-10T07:37:15;1.90;;;1.80;;
38715;SDS011;24833;49.324;8.694;2023-05-10T07:39:42;3.35;;;1.90;;
38715;SDS011;24833;49.324;8.694;2023-05-10T07:42:09;1.90;;;1.60;;
38715;SDS011;24833;49.324;8.694;2023-05-10T07:44:36;2.53;;;1.60;;
38715;SDS011;24833;49.324;8.694;2023-05-10T07:47:03;2.35;;;1.67;;
38715;SDS011;24833;49.324;8.694;2023-05-10T07:49:30;2.03;;;1.70;;
38715;SDS011;24833;49.324;8.694;2023-05-10T07:51:57;2.22;;;1.60;;
38715;SDS011;24833;49.324;8.694;2023-05-10T07:54:24;5.15;;;1.85;;
38715;SDS011;24833;49.324;8.694;2023-05-10T07:56:51;2.08;;;1.88;;
38715;SDS011;24833;49.324;8.694;2023-05-10T07:59:18;1.65;;;1.55;;
38715;SDS011;24833;49.324;8.694;2023-05-10T08:01:45;2.60;;;1.40;;
38715;SDS011;24833;49.324;8.694;2023-05-10T08:04:12;2.22;;;1.67;;
38715;SDS011;24833;49.324;8.694;2023-05-10T08:06:39;2.00;;;1.67;;
38715;SDS011;24833;49.324;8.694;2023-05-10T08:09:07;1.40;;;1.30;;
38715;SDS011;24833;49.324;8.694;2023-05-10T08:11:34;3.00;;;1.35;;
38715;SDS011;24833;49.324;8.694;2023-05-10T08:14:01;1.58;;;1.48;;
38715;SDS011;24833;49.324;8.694;2023-05-10T08:16:28;2.03;;;1.10;;
38715;SDS011;24833;49.324;8.694;2023-05-10T08:18:56;1.35;;;1.25;;
38715;SDS011;24833;49.324;8.694;2023-05-10T08:21:23;1.42;;;1.33;;
38715;SDS011;24833;49.324;8.694;2023-05-10T08:23:50;1.95;;;1.55;;
38715;SDS011;24833;49.324;8.694;2023-05-10T08:26:17;1.20;;;1.05;;
38715;SDS011;24833;49.324;8.694;2023-05-10T08:28:44;3.15;;;1.25;;
38715;SDS011;24833;49.324;8.694;2023-05-10T08:31:11;1.40;;;1.20;;
38715;SDS011;24833;49.324;8.694;2023-05-10T08:33:38;1.42;;;1.17;;
38715;SDS011;24833;49.324;8.694;2023-05-10T08:36:08;0.90;;;0.90;;
38715;SDS011;24833;49.324;8.694;2023-05-10T08:38:35;1.58;;;1.15;;
38715;SDS011;24833;49.324;8.694;2023-05-10T08:41:03;0.93;;;0.93;;
38715;SDS011;24833;49.324;8.694;2023-05-10T08:43:32;0.95;;;0.95;;
38715;SDS011;24833;49.324;8.694;2023-05-10T08:46:00;1.38;;;1.02;;
38715;SDS011;24833;49.324;8.694;2023-05-10T08:48:29;1.23;;;1.13;;
38715;SDS011;24833;49.324;8.694;2023-05-10T08:50:57;1.10;;;1.00;;
38715;SDS011;24833;49.324;8.694;2023-05-10T08:53:26;0.90;;;0.90;;
38715;SDS011;24833;49.324;8.694;2023-05-10T08:58:24;0.98;;;0.98;;
38715;SDS011;24833;49.324;8.694;2023-05-10T09:00:51;0.98;;;0.90;;
38715;SDS011;24833;49.324;8.694;2023-05-10T09:03:19;3.15;;;1.02;;
38715;SDS011;24833;49.324;8.694;2023-05-10T09:05:47;0.82;;;0.60;;
38715;SDS011;24833;49.324;8.694;2023-05-10T09:08:15;1.13;;;0.90;;
38715;SDS011;24833;49.324;8.694;2023-05-10T09:10:43;0.77;;;0.77;;
38715;SDS011;24833;49.324;8.694;2023-05-10T09:13:13;1.10;;;0.80;;
38715;SDS011;24833;49.324;8.694;2023-05-10T09:15:43;0.60;;;0.60;;
38715;SDS011;24833;49.324;8.694;2023-05-10T09:18:11;0.73;;;0.65;;
38715;SDS011;24833;49.324;8.694;2023-05-10T09:20:38;0.60;;;0.60;;
38715;SDS011;24833;49.324;8.694;2023-05-10T09:23:06;1.33;;;0.68;;
38715;SDS011;24833;49.324;8.694;2023-05-10T09:25:33;1.95;;;0.70;;
38715;SDS011;24833;49.324;8.694;2023-05-10T09:28:01;1.00;;;0.57;;
38715;SDS011;24833;49.324;8.694;2023-05-10T09:30:28;1.30;;;0.80;;
38715;SDS011;24833;49.324;8.694;2023-05-10T09:32:57;1.33;;;0.90;;
38715;SDS011;24833;49.324;8.694;2023-05-10T09:35:30;1.35;;;0.70;;
38715;SDS011;24833;49.324;8.694;2023-05-10T09:38:02;1.27;;;0.50;;
38715;SDS011;24833;49.324;8.694;2023-05-10T09:40:31;0.70;;;0.70;;
38715;SDS011;24833;49.324;8.694;2023-05-10T09:43:02;0.60;;;0.60;;
38715;SDS011;24833;49.324;8.694;2023-05-10T09:45:33;0.88;;;0.82;;
38715;SDS011;24833;49.324;8.694;2023-05-10T09:48:04;0.70;;;0.70;;
38715;SDS011;24833;49.324;8.694;2023-05-10T09:50:32;0.70;;;0.70;;
38715;SDS011;24833;49.324;8.694;2023-05-10T09:53:01;0.63;;;0.63;;
38715;SDS011;24833;49.324;8.694;2023-05-10T09:58:02;0.60;;;0.60;;
38715;SDS011;24833;49.324;8.694;2023-05-10T10:00:35;0.65;;;0.65;;
38715;SDS011;24833;49.324;8.694;2023-05-10T10:03:12;0.63;;;0.60;;
38715;SDS011;24833;49.324;8.694;2023-05-10T10:05:41;2.05;;;0.57;;
38715;SDS011;24833;49.324;8.694;2023-05-10T10:08:10;2.38;;;0.55;;
38715;SDS011;24833;49.324;8.694;2023-05-10T10:10:38;0.80;;;0.60;;
38715;SDS011;24833;49.324;8.694;2023-05-10T10:13:07;1.10;;;0.38;;
38715;SDS011;24833;49.324;8.694;2023-05-10T10:15:34;0.50;;;0.50;;
38715;SDS011;24833;49.324;8.694;2023-05-10T10:18:02;0.30;;;0.30;;
38715;SDS011;24833;49.324;8.694;2023-05-10T10:20:33;0.85;;;0.65;;
38715;SDS011;24833;49.324;8.694;2023-05-10T10:23:00;0.32;;;0.32;;
38715;SDS011;24833;49.324;8.694;2023-05-10T10:25:27;0.40;;;0.40;;
38715;SDS011;24833;49.324;8.694;2023-05-10T10:27:58;0.32;;;0.30;;
38715;SDS011;24833;49.324;8.694;2023-05-10T10:30:47;1.20;;;0.40;;
38715;SDS011;24833;49.324;8.694;2023-05-10T10:36:13;2.45;;;0.80;;
38715;SDS011;24833;49.324;8.694;2023-05-10T10:41:31;0.30;;;0.30;;
38715;SDS011;24833;49.324;8.694;2023-05-10T10:44:22;0.57;;;0.30;;
38715;SDS011;24833;49.324;8.694;2023-05-10T10:49:32;0.28;;;0.25;;
38715;SDS011;24833;49.324;8.694;2023-05-10T11:00:18;0.40;;;0.40;;
38715;SDS011;24833;49.324;8.694;2023-05-10T11:03:04;0.35;;;0.30;;
38715;SDS011;24833;49.324;8.694;2023-05-10T11:08:30;1.27;;;0.30;;
38715;SDS011;24833;49.324;8.694;2023-05-10T11:11:03;0.60;;;0.30;;
38715;SDS011;24833;49.324;8.694;2023-05-10T11:13:39;0.32;;;0.32;;
38715;SDS011;24833;49.324;8.694;2023-05-10T11:16:20;0.30;;;0.20;;
38715;SDS011;24833;49.324;8.694;2023-05-10T11:19:01;0.10;;;0.10;;
38715;SDS011;24833;49.324;8.694;2023-05-10T11:21:47;0.40;;;0.40;;
38715;SDS011;24833;49.324;8.694;2023-05-10T11:24:21;0.40;;;0.40;;
38715;SDS011;24833;49.324;8.694;2023-05-10T11:26:53;0.45;;;0.30;;
38715;SDS011;24833;49.324;8.694;2023-05-10T11:29:20;0.22;;;0.22;;
38715;SDS011;24833;49.324;8.694;2023-05-10T11:31:47;0.85;;;0.30;;
38715;SDS011;24833;49.324;8.694;2023-05-10T11:34:29;0.68;;;0.52;;
38715;SDS011;24833;49.324;8.694;2023-05-10T11:37:00;1.35;;;0.38;;
38715;SDS011;24833;49.324;8.694;2023-05-10T11:39:27;1.20;;;0.55;;
38715;SDS011;24833;49.324;8.694;2023-05-10T11:41:56;0.82;;;0.30;;
38715;SDS011;24833;49.324;8.694;2023-05-10T11:44:30;1.05;;;0.50;;
38715;SDS011;24833;49.324;8.694;2023-05-10T11:47:01;0.98;;;0.60;;
38715;SDS011;24833;49.324;8.694;2023-05-10T11:49:28;0.65;;;0.50;;
38715;SDS011;24833;49.324;8.694;2023-05-10T11:52:05;0.40;;;0.40;;
38715;SDS011;24833;49.324;8.694;2023-05-10T11:54:33;0.40;;;0.40;;
38715;SDS011;24833;49.324;8.694;2023-05-10T11:57:03;0.70;;;0.50;;
38715;SDS011;24833;49.324;8.694;2023-05-10T11:59:31;0.60;;;0.60;;
38715;SDS011;24833;49.324;8.694;2023-05-10T12:01:59;1.73;;;0.57;;
38715;SDS011;24833;49.324;8.694;2023-05-10T12:04:26;0.70;;;0.60;;
38715;SDS011;24833;49.324;8.694;2023-05-10T12:07:01;1.00;;;0.52;;
38715;SDS011;24833;49.324;8.694;2023-05-10T12:09:34;1.98;;;0.57;;
38715;SDS011;24833;49.324;8.694;2023-05-10T12:12:10;1.27;;;0.70;;
38715;SDS011;24833;49.324;8.694;2023-05-10T12:14:43;1.58;;;0.82;;
38715;SDS011;24833;49.324;8.694;2023-05-10T12:17:13;1.00;;;0.52;;
38715;SDS011;24833;49.324;8.694;2023-05-10T12:19:40;1.13;;;0.60;;
38715;SDS011;24833;49.324;8.694;2023-05-10T12:22:07;0.60;;;0.50;;
38715;SDS011;24833;49.324;8.694;2023-05-10T12:24:35;1.15;;;0.40;;
38715;SDS011;24833;49.324;8.694;2023-05-10T12:27:04;1.45;;;0.60;;
38715;SDS011;24833;49.324;8.694;2023-05-10T12:29:34;0.88;;;0.60;;
38715;SDS011;24833;49.324;8.694;2023-05-10T12:32:02;1.35;;;0.52;;
38715;SDS011;24833;49.324;8.694;2023-05-10T12:34:33;0.75;;;0.60;;
38715;SDS011;24833;49.324;8.694;2023-05-10T12:37:02;1.30;;;0.63;;
38715;SDS011;24833;49.324;8.694;2023-05-10T12:39:43;4.00;;;0.55;;
38715;SDS011;24833;49.324;8.694;2023-05-10T12:42:10;0.75;;;0.70;;
38715;SDS011;24833;49.324;8.694;2023-05-10T12:44:38;1.80;;;0.52;;
38715;SDS011;24833;49.324;8.694;2023-05-10T12:47:06;2.35;;;0.55;;
38715;SDS011;24833;49.324;8.694;2023-05-10T12:49:33;1.88;;;0.57;;
38715;SDS011;24833;49.324;8.694;2023-05-10T12:52:00;1.02;;;0.40;;
38715;SDS011;24833;49.324;8.694;2023-05-10T12:54:29;0.88;;;0.32;;
38715;SDS011;24833;49.324;8.694;2023-05-10T12:56:56;0.90;;;0.57;;
38715;SDS011;24833;49.324;8.694;2023-05-10T12:59:23;1.05;;;0.57;;
38715;SDS011;24833;49.324;8.694;2023-05-10T13:01:50;1.17;;;0.50;;
38715;SDS011;24833;49.324;8.694;2023-05-10T13:04:17;1.08;;;0.40;;
38715;SDS011;24833;49.324;8.694;2023-05-10T13:06:44;2.28;;;0.45;;
38715;SDS011;24833;49.324;8.694;2023-05-10T13:09:11;1.58;;;0.45;;
38715;SDS011;24833;49.324;8.694;2023-05-10T13:11:38;5.07;;;0.65;;
38715;SDS011;24833;49.324;8.694;2023-05-10T13:14:05;1.50;;;0.43;;
38715;SDS011;24833;49.324;8.694;2023-05-10T13:16:32;0.30;;;0.25;;
38715;SDS011;24833;49.324;8.694;2023-05-10T13:18:59;1.38;;;0.80;;
38715;SDS011;24833;49.324;8.694;2023-05-10T13:21:26;1.85;;;0.40;;
38715;SDS011;24833;49.324;8.694;2023-05-10T13:23:54;1.48;;;0.50;;
38715;SDS011;24833;49.324;8.694;2023-05-10T13:26:21;0.65;;;0.57;;
38715;SDS011;24833;49.324;8.694;2023-05-10T13:28:48;0.50;;;0.50;;
38715;SDS011;24833;49.324;8.694;2023-05-10T13:31:17;0.43;;;0.40;;
38715;SDS011;24833;49.324;8.694;2023-05-10T13:33:44;0.93;;;0.40;;
38715;SDS011;24833;49.324;8.694;2023-05-10T13:36:11;0.43;;;0.43;;
38715;SDS011;24833;49.324;8.694;2023-05-10T13:38:38;0.73;;;0.50;;
38715;SDS011;24833;49.324;8.694;2023-05-10T13:41:05;0.40;;;0.40;;
38715;SDS011;24833;49.324;8.694;2023-05-10T13:43:32;1.08;;;0.40;;
38715;SDS011;24833;49.324;8.694;2023-05-10T13:45:59;0.63;;;0.40;;
38715;SDS011;24833;49.324;8.694;2023-05-10T13:48:27;0.40;;;0.40;;
38715;SDS011;24833;49.324;8.694;2023-05-10T13:50:54;1.10;;;0.70;;
38715;SDS011;24833;49.324;8.694;2023-05-10T13:53:21;1.30;;;0.57;;
38715;SDS011;24833;49.324;8.694;2023-05-10T13:55:48;2.42;;;0.30;;
38715;SDS011;24833;49.324;8.694;2023-05-10T13:58:15;3.22;;;0.55;;
38715;SDS011;24833;49.324;8.694;2023-05-10T14:00:42;1.05;;;0.80;;
38715;SDS011;24833;49.324;8.694;2023-05-10T14:03:09;0.85;;;0.50;;
38715;SDS011;24833;49.324;8.694;2023-05-10T14:05:37;1.63;;;0.80;;
38715;SDS011;24833;49.324;8.694;2023-05-10T14:08:05;1.35;;;0.50;;
38715;SDS011;24833;49.324;8.694;2023-05-10T14:10:32;2.60;;;0.20;;
38715;SDS011;24833;49.324;8.694;2023-05-10T14:12:59;0.47;;;0.32;;
38715;SDS011;24833;49.324;8.694;2023-05-10T14:15:27;0.60;;;0.38;;
38715;SDS011;24833;49.324;8.694;2023-05-10T14:17:54;0.90;;;0.30;;
38715;SDS011;24833;49.324;8.694;2023-05-10T14:20:21;0.40;;;0.30;;
38715;SDS011;24833;49.324;8.694;2023-05-10T14:22:48;0.85;;;0.32;;
38715;SDS011;24833;49.324;8.694;2023-05-10T14:25:15;2.03;;;0.30;;
38715;SDS011;24833;49.324;8.694;2023-05-10T14:27:44;0.88;;;0.45;;
38715;SDS011;24833;49.324;8.694;2023-05-10T14:30:11;0.30;;;0.30;;
38715;SDS011;24833;49.324;8.694;2023-05-10T14:32:38;0.70;;;0.43;;
38715;SDS011;24833;49.324;8.694;2023-05-10T14:35:05;0.90;;;0.40;;
38715;SDS011;24833;49.324;8.694;2023-05-10T14:40:03;0.45;;;0.30;;
38715;SDS011;24833;49.324;8.694;2023-05-10T14:42:30;1.08;;;0.32;;
38715;SDS011;24833;49.324;8.694;2023-05-10T14:44:58;2.38;;;0.40;;
38715;SDS011;24833;49.324;8.694;2023-05-10T14:47:25;0.50;;;0.30;;
38715;SDS011;24833;49.324;8.694;2023-05-10T14:49:51;0.82;;;0.30;;
38715;SDS011;24833;49.324;8.694;2023-05-10T14:52:18;0.75;;;0.35;;
38715;SDS011;24833;49.324;8.694;2023-05-10T14:54:45;1.13;;;0.28;;
38715;SDS011;24833;49.324;8.694;2023-05-10T14:57:12;0.90;;;0.35;;
38715;SDS011;24833;49.324;8.694;2023-05-10T14:59:39;1.13;;;0.45;;
38715;SDS011;24833;49.324;8.694;2023-05-10T15:02:07;1.13;;;0.50;;
38715;SDS011;24833;49.324;8.694;2023-05-10T15:04:34;0.75;;;0.22;;
38715;SDS011;24833;49.324;8.694;2023-05-10T15:07:02;3.60;;;0.40;;
38715;SDS011;24833;49.324;8.694;2023-05-10T15:09:30;0.73;;;0.30;;
38715;SDS011;24833;49.324;8.694;2023-05-10T15:11:57;0.70;;;0.38;;
38715;SDS011;24833;49.324;8.694;2023-05-10T15:14:24;0.88;;;0.40;;
38715;SDS011;24833;49.324;8.694;2023-05-10T15:16:51;0.30;;;0.30;;
38715;SDS011;24833;49.324;8.694;2023-05-10T15:19:19;0.70;;;0.40;;
38715;SDS011;24833;49.324;8.694;2023-05-10T15:21:46;1.15;;;0.20;;
38715;SDS011;24833;49.324;8.694;2023-05-10T15:24:13;0.73;;;0.30;;
38715;SDS011;24833;49.324;8.694;2023-05-10T15:26:40;1.08;;;0.50;;
38715;SDS011;24833;49.324;8.694;2023-05-10T15:29:07;0.35;;;0.20;;
38715;SDS011;24833;49.324;8.694;2023-05-10T15:31:34;0.20;;;0.20;;
38715;SDS011;24833;49.324;8.694;2023-05-10T15:34:02;0.98;;;0.32;;
38715;SDS011;24833;49.324;8.694;2023-05-10T15:36:29;0.32;;;0.20;;
38715;SDS011;24833;49.324;8.694;2023-05-10T15:38:57;0.47;;;0.40;;
38715;SDS011;24833;49.324;8.694;2023-05-10T15:41:24;0.82;;;0.38;;
38715;SDS011;24833;49.324;8.694;2023-05-10T15:43:52;0.28;;;0.20;;
38715;SDS011;24833;49.324;8.694;2023-05-10T15:46:19;1.38;;;0.22;;
38715;SDS011;24833;49.324;8.694;2023-05-10T15:48:46;0.75;;;0.32;;
38715;SDS011;24833;49.324;8.694;2023-05-10T15:51:13;0.20;;;0.20;;